createdAt,value
2018-12-15T00:01:13.620Z,100.00
2018-12-15T00:03:40.764Z,100.00
2018-12-15T00:06:07.888Z,100.00
2018-12-15T00:08:35.074Z,100.00
2018-12-15T00:11:02.191Z,100.00
2018-12-15T00:13:29.303Z,100.00
2018-12-15T00:15:56.574Z,100.00
2018-12-15T00:18:23.820Z,100.00
2018-12-15T00:20:50.938Z,100.00
2018-12-15T00:23:18.114Z,100.00
2018-12-15T00:25:45.235Z,100.00
2018-12-15T00:28:12.372Z,100.00
2018-12-15T00:30:39.536Z,100.00
2018-12-15T00:33:06.675Z,100.00
2018-12-15T00:35:33.811Z,100.00
2018-12-15T00:38:00.990Z,100.00
2018-12-15T00:40:28.107Z,100.00
2018-12-15T00:42:56.328Z,100.00
2018-12-15T00:45:23.595Z,100.00
2018-12-15T00:47:50.758Z,100.00
2018-12-15T00:50:17.867Z,100.00
2018-12-15T00:52:45.034Z,100.00
2018-12-15T00:55:12.161Z,99.84
2018-12-15T00:57:39.296Z,100.00
2018-12-15T01:00:06.775Z,100.00
2018-12-15T01:02:33.894Z,99.51
2018-12-15T01:05:01.013Z,99.91
2018-12-15T01:07:28.181Z,99.66
2018-12-15T01:09:55.275Z,100.00
2018-12-15T01:12:22.387Z,99.91
2018-12-15T01:14:49.546Z,99.97
2018-12-15T01:17:20.418Z,99.22
2018-12-15T01:19:45.857Z,99.60
2018-12-15T01:22:13.006Z,99.29
2018-12-15T01:24:40.106Z,97.53
2018-12-15T01:27:07.208Z,98.62
2018-12-15T01:29:34.420Z,97.82
2018-12-15T01:32:01.557Z,96.85
2018-12-15T01:34:28.691Z,96.95
2018-12-15T01:36:55.907Z,97.53
2018-12-15T01:39:23.034Z,97.52
2018-12-15T01:41:50.145Z,96.81
2018-12-15T01:44:17.318Z,96.77
2018-12-15T01:46:44.439Z,96.33
2018-12-15T01:49:11.555Z,94.71
2018-12-15T01:51:38.711Z,94.20
2018-12-15T01:54:05.839Z,93.81
2018-12-15T01:56:32.959Z,94.43
2018-12-15T01:59:00.119Z,93.42
2018-12-15T02:01:27.314Z,93.42
2018-12-15T02:03:54.440Z,92.49
2018-12-15T02:06:21.614Z,92.21
2018-12-15T02:08:48.715Z,90.62
2018-12-15T02:11:15.829Z,90.92
2018-12-15T02:13:43.119Z,90.83
2018-12-15T02:16:10.276Z,92.05
2018-12-15T02:18:37.375Z,91.79
2018-12-15T02:21:04.520Z,91.83
2018-12-15T02:23:31.637Z,90.70
2018-12-15T02:25:58.764Z,89.91
2018-12-15T02:28:25.926Z,90.42
2018-12-15T02:30:53.047Z,91.22
2018-12-15T02:33:20.141Z,90.66
2018-12-15T02:35:47.320Z,91.31
2018-12-15T02:38:14.451Z,91.71
2018-12-15T02:40:41.575Z,91.15
2018-12-15T02:43:08.766Z,91.57
2018-12-15T02:45:35.883Z,90.81
2018-12-15T02:48:03.007Z,90.43
2018-12-15T02:50:30.167Z,87.56
2018-12-15T02:52:57.302Z,90.25
2018-12-15T02:55:24.439Z,89.87
2018-12-15T02:57:51.587Z,88.39
2018-12-15T03:00:18.711Z,89.77
2018-12-15T03:02:45.904Z,90.46
2018-12-15T03:05:13.375Z,89.99
2018-12-15T03:07:40.550Z,90.17
2018-12-15T03:10:07.824Z,89.78
2018-12-15T03:12:35.091Z,90.98
2018-12-15T03:15:02.198Z,92.08
2018-12-15T03:17:29.327Z,93.29
2018-12-15T03:20:00.427Z,93.67
2018-12-15T03:22:27.674Z,92.12
2018-12-15T03:24:54.793Z,92.46
2018-12-15T03:27:22.097Z,93.24
2018-12-15T03:29:49.304Z,92.03
2018-12-15T03:32:16.425Z,91.80
2018-12-15T03:34:43.619Z,90.79
2018-12-15T03:37:10.743Z,91.37
2018-12-15T03:39:38.054Z,90.21
2018-12-15T03:42:05.313Z,89.69
2018-12-15T03:46:57.851Z,91.19
2018-12-15T03:49:24.984Z,89.03
2018-12-15T03:51:52.110Z,90.25
2018-12-15T03:54:19.284Z,91.27
2018-12-15T03:56:46.474Z,90.65
2018-12-15T03:59:13.607Z,90.26
2018-12-15T04:01:40.752Z,88.97
2018-12-15T04:04:08.342Z,88.85
2018-12-15T04:06:35.480Z,89.52
2018-12-15T04:09:03.422Z,90.75
2018-12-15T04:11:30.666Z,89.32
2018-12-15T04:13:57.856Z,88.64
2018-12-15T04:16:24.985Z,90.74
2018-12-15T04:18:52.167Z,89.11
2018-12-15T04:21:19.281Z,91.00
2018-12-15T04:23:46.423Z,90.36
2018-12-15T04:26:13.625Z,91.11
2018-12-15T04:28:40.746Z,90.32
2018-12-15T04:31:07.893Z,90.59
2018-12-15T04:33:35.083Z,90.90
2018-12-15T04:36:12.479Z,91.09
2018-12-15T04:38:39.744Z,89.17
2018-12-15T04:41:06.872Z,90.48
2018-12-15T04:43:34.019Z,90.13
2018-12-15T04:46:01.234Z,91.63
2018-12-15T04:48:28.470Z,89.02
2018-12-15T04:50:55.580Z,88.48
2018-12-15T04:53:22.756Z,87.14
2018-12-15T04:55:49.898Z,88.62
2018-12-15T04:58:17.033Z,90.24
2018-12-15T05:00:44.344Z,90.23
2018-12-15T05:03:11.494Z,84.83
2018-12-15T05:05:38.665Z,86.28
2018-12-15T05:08:05.951Z,87.37
2018-12-15T05:10:33.073Z,89.34
2018-12-15T05:13:00.183Z,86.27
2018-12-15T05:15:27.394Z,85.61
2018-12-15T05:17:54.524Z,86.04
2018-12-15T05:20:21.627Z,84.70
2018-12-15T05:22:48.776Z,87.68
2018-12-15T05:25:16.011Z,87.07
2018-12-15T05:27:43.130Z,85.10
2018-12-15T05:30:11.130Z,86.42
2018-12-15T05:32:38.239Z,86.43
2018-12-15T05:35:05.359Z,88.60
2018-12-15T05:37:32.523Z,89.12
2018-12-15T05:39:59.624Z,87.20
2018-12-15T05:42:26.826Z,86.94
2018-12-15T05:44:54.093Z,87.62
2018-12-15T05:47:21.192Z,87.84
2018-12-15T05:49:48.296Z,87.73
2018-12-15T05:52:15.452Z,89.23
2018-12-15T05:54:42.556Z,89.95
2018-12-15T05:57:09.711Z,89.19
2018-12-15T05:59:36.920Z,88.30
2018-12-15T06:02:06.076Z,86.53
2018-12-15T06:04:33.223Z,87.52
2018-12-15T06:07:02.266Z,87.51
2018-12-15T06:09:29.387Z,88.77
2018-12-15T06:11:56.673Z,88.41
2018-12-15T06:14:23.886Z,88.64
2018-12-15T06:16:51.022Z,89.09
2018-12-15T06:19:19.032Z,88.46
2018-12-15T06:21:46.493Z,88.63
2018-12-15T06:24:13.635Z,89.11
2018-12-15T06:26:40.746Z,90.08
2018-12-15T06:29:07.940Z,90.17
2018-12-15T06:31:35.099Z,90.40
2018-12-15T06:34:02.338Z,91.38
2018-12-15T06:36:29.522Z,90.36
2018-12-15T06:38:57.324Z,89.64
2018-12-15T06:41:24.487Z,91.12
2018-12-15T06:43:51.887Z,91.59
2018-12-15T06:46:19.454Z,91.53
2018-12-15T06:48:47.461Z,91.44
2018-12-15T06:51:14.678Z,90.18
2018-12-15T06:53:41.807Z,92.53
2018-12-15T06:56:08.968Z,92.02
2018-12-15T06:58:36.162Z,89.66
2018-12-15T07:01:03.418Z,90.77
2018-12-15T07:03:30.540Z,92.58
2018-12-15T07:05:57.794Z,92.08
2018-12-15T07:08:24.990Z,90.86
2018-12-15T07:10:52.186Z,92.16
2018-12-15T07:13:19.347Z,92.99
2018-12-15T07:15:46.495Z,92.64
2018-12-15T07:18:14.002Z,92.72
2018-12-15T07:20:41.194Z,93.10
2018-12-15T07:23:08.327Z,93.80
2018-12-15T07:25:35.971Z,93.18
2018-12-15T07:28:04.465Z,92.57
2018-12-15T07:30:31.923Z,94.54
2018-12-15T07:32:59.389Z,95.12
2018-12-15T07:35:26.572Z,94.80
2018-12-15T07:37:53.688Z,92.46
2018-12-15T07:40:20.830Z,92.40
2018-12-15T07:42:48.023Z,94.11
2018-12-15T07:45:15.144Z,95.58
2018-12-15T07:47:42.619Z,96.30
2018-12-15T07:52:35.119Z,93.60
2018-12-15T07:55:02.232Z,95.03
2018-12-15T07:57:29.684Z,93.60
2018-12-15T07:59:57.048Z,94.00
2018-12-15T08:02:24.276Z,92.75
2018-12-15T08:04:51.812Z,93.34
2018-12-15T08:07:19.169Z,90.91
2018-12-15T08:09:48.585Z,92.90
2018-12-15T08:12:52.652Z,92.76
2018-12-15T08:15:19.965Z,90.85
2018-12-15T08:17:47.124Z,93.22
2018-12-15T08:20:14.413Z,91.98
2018-12-15T08:22:41.556Z,91.50
2018-12-15T08:25:08.706Z,91.93
2018-12-15T08:27:35.931Z,92.31
2018-12-15T08:30:05.038Z,92.03
2018-12-15T08:32:33.031Z,92.39
2018-12-15T08:35:00.226Z,92.56
2018-12-15T08:37:27.345Z,93.53
2018-12-15T08:39:54.585Z,92.86
2018-12-15T08:42:22.897Z,92.00
2018-12-15T08:44:50.145Z,91.62
2018-12-15T08:47:18.365Z,91.99
2018-12-15T08:49:45.533Z,91.45
2018-12-15T08:52:13.231Z,91.19
2018-12-15T08:54:40.387Z,92.05
2018-12-15T08:57:09.563Z,91.55
2018-12-15T08:59:36.681Z,91.36
2018-12-15T09:02:03.823Z,91.65
2018-12-15T09:04:32.251Z,90.34
2018-12-15T09:07:00.328Z,90.07
2018-12-15T09:09:35.359Z,89.94
2018-12-15T09:12:02.572Z,89.12
2018-12-15T09:14:29.769Z,90.71
2018-12-15T09:16:57.107Z,88.69
2018-12-15T09:19:24.238Z,89.93
2018-12-15T09:21:52.126Z,90.05
2018-12-15T09:24:19.320Z,89.95
2018-12-15T09:26:46.473Z,90.19
2018-12-15T09:29:13.763Z,91.39
2018-12-15T09:31:41.153Z,90.18
2018-12-15T09:34:08.322Z,91.22
2018-12-15T09:36:35.546Z,90.74
2018-12-15T09:39:04.203Z,91.22
2018-12-15T09:41:31.331Z,91.10
2018-12-15T09:43:58.475Z,90.74
2018-12-15T09:46:25.697Z,91.07
2018-12-15T09:48:54.590Z,91.16
2018-12-15T09:51:21.996Z,91.42
2018-12-15T09:53:49.154Z,91.24
2018-12-15T09:56:16.273Z,91.02
2018-12-15T09:58:43.505Z,91.09
2018-12-15T10:01:10.815Z,90.86
2018-12-15T10:03:37.919Z,90.46
2018-12-15T10:06:05.204Z,91.45
2018-12-15T10:08:32.504Z,91.34
2018-12-15T10:10:59.802Z,92.28
2018-12-15T10:13:27.228Z,90.69
2018-12-15T10:15:54.588Z,92.01
2018-12-15T10:18:21.690Z,91.53
2018-12-15T10:20:50.335Z,90.24
2018-12-15T10:23:17.913Z,90.69
2018-12-15T10:25:45.105Z,90.63
2018-12-15T10:29:12.763Z,88.20
2018-12-15T10:31:45.566Z,90.09
2018-12-15T10:34:12.965Z,88.13
2018-12-15T10:36:40.094Z,89.53
2018-12-15T10:39:08.231Z,89.25
2018-12-15T10:41:35.435Z,89.85
2018-12-15T10:44:02.572Z,90.74
2018-12-15T10:46:30.099Z,89.92
2018-12-15T10:48:57.249Z,91.11
2018-12-15T10:51:24.363Z,91.08
2018-12-15T10:53:51.538Z,91.89
2018-12-15T10:56:18.814Z,90.91
2018-12-15T10:58:46.084Z,91.50
2018-12-15T11:01:18.974Z,90.91
2018-12-15T11:03:46.197Z,90.50
2018-12-15T11:06:13.331Z,92.26
2018-12-15T11:08:40.598Z,92.44
2018-12-15T11:11:07.723Z,91.46
2018-12-15T11:13:34.891Z,91.49
2018-12-15T11:16:02.354Z,92.58
2018-12-15T11:18:29.522Z,92.12
2018-12-15T11:20:56.658Z,92.52
2018-12-15T11:23:23.882Z,92.14
2018-12-15T11:25:51.026Z,92.41
2018-12-15T11:28:18.123Z,92.13
2018-12-15T11:30:45.304Z,92.38
2018-12-15T11:33:12.529Z,92.00
2018-12-15T11:35:39.658Z,90.82
2018-12-15T11:38:06.873Z,91.97
2018-12-15T11:40:34.091Z,91.82
2018-12-15T11:43:01.200Z,91.91
2018-12-15T11:45:28.464Z,90.54
2018-12-15T11:47:55.677Z,90.85
2018-12-15T11:50:22.819Z,91.77
2018-12-15T11:52:50.286Z,91.81
2018-12-15T11:55:18.580Z,92.09
2018-12-15T11:57:45.754Z,92.92
2018-12-15T12:00:13.976Z,92.00
2018-12-15T12:02:41.228Z,91.31
2018-12-15T12:05:08.448Z,91.00
2018-12-15T12:07:35.613Z,91.16
2018-12-15T12:10:02.858Z,90.95
2018-12-15T12:12:30.006Z,90.60
2018-12-15T12:14:57.372Z,91.32
2018-12-15T12:17:24.568Z,91.26
2018-12-15T12:19:51.691Z,91.24
2018-12-15T12:22:19.003Z,90.77
2018-12-15T12:24:46.165Z,91.27
2018-12-15T12:27:13.295Z,91.84
2018-12-15T12:29:40.442Z,92.56
2018-12-15T12:32:07.549Z,92.39
2018-12-15T12:34:34.642Z,91.94
2018-12-15T12:37:01.885Z,90.46
2018-12-15T12:39:29.024Z,90.14
2018-12-15T12:41:56.116Z,90.64
2018-12-15T12:44:23.443Z,90.21
2018-12-15T12:46:50.543Z,89.62
2018-12-15T12:49:17.663Z,90.61
2018-12-15T12:51:44.903Z,89.03
2018-12-15T12:54:12.079Z,88.89
2018-12-15T12:56:39.271Z,88.19
2018-12-15T12:59:06.720Z,88.27
2018-12-15T13:01:34.388Z,87.88
2018-12-15T13:04:02.820Z,87.16
2018-12-15T13:06:30.201Z,88.10
2018-12-15T13:08:57.343Z,88.23
2018-12-15T13:11:24.466Z,88.77
2018-12-15T13:13:51.756Z,87.24
2018-12-15T13:16:19.142Z,87.83
2018-12-15T13:18:46.310Z,89.36
2018-12-15T13:21:13.575Z,88.34
2018-12-15T13:23:40.702Z,88.57
2018-12-15T13:26:07.814Z,88.41
2018-12-15T13:28:35.045Z,89.05
2018-12-15T13:31:02.206Z,88.31
2018-12-15T13:33:35.028Z,88.47
2018-12-15T13:36:02.433Z,87.41
2018-12-15T13:38:29.567Z,87.00
2018-12-15T13:40:56.772Z,87.66
2018-12-15T13:43:23.899Z,88.70
2018-12-15T13:45:51.024Z,88.40
2018-12-15T13:48:18.218Z,89.32
2018-12-15T13:50:45.374Z,87.53
2018-12-15T13:53:12.649Z,88.69
2018-12-15T13:55:39.871Z,90.04
2018-12-15T13:58:07.099Z,89.86
2018-12-15T14:00:34.253Z,91.34
2018-12-15T14:03:01.548Z,90.57
2018-12-15T14:05:28.715Z,90.60
2018-12-15T14:07:55.847Z,89.79
2018-12-15T14:10:23.028Z,90.16
2018-12-15T14:12:50.148Z,91.00
2018-12-15T14:15:17.418Z,92.08
2018-12-15T14:17:44.718Z,93.22
2018-12-15T14:20:16.763Z,92.41
2018-12-15T14:22:41.099Z,93.03
2018-12-15T14:25:08.420Z,93.11
2018-12-15T14:27:35.600Z,93.84
2018-12-15T14:30:02.947Z,94.29
2018-12-15T14:32:30.145Z,95.20
2018-12-15T14:34:57.263Z,95.30
2018-12-15T14:37:24.370Z,95.54
2018-12-15T14:39:51.619Z,95.82
2018-12-15T14:42:18.731Z,96.32
2018-12-15T14:44:45.966Z,96.42
2018-12-15T14:47:13.145Z,96.70
2018-12-15T14:49:40.256Z,97.21
2018-12-15T14:52:07.498Z,97.56
2018-12-15T14:54:34.726Z,98.59
2018-12-15T14:57:01.928Z,97.43
2018-12-15T14:59:29.020Z,97.61
2018-12-15T15:01:56.273Z,97.56
2018-12-15T15:04:23.496Z,97.99
2018-12-15T15:06:50.642Z,98.41
2018-12-15T15:09:17.865Z,99.54
2018-12-15T15:11:44.959Z,98.93
2018-12-15T15:14:12.069Z,98.89
2018-12-15T15:16:39.257Z,99.41
2018-12-15T15:19:06.450Z,99.62
2018-12-15T15:21:33.597Z,100.00
2018-12-15T15:24:00.774Z,99.86
2018-12-15T15:26:27.891Z,99.35
2018-12-15T15:28:55.010Z,99.25
2018-12-15T15:31:22.450Z,99.62
2018-12-15T15:33:49.582Z,99.55
2018-12-15T15:36:16.783Z,99.37
2018-12-15T15:38:44.037Z,99.33
2018-12-15T15:41:11.188Z,98.82
2018-12-15T15:43:38.318Z,99.45
2018-12-15T15:46:05.490Z,98.97
2018-12-15T15:48:32.666Z,99.83
2018-12-15T15:50:59.874Z,99.52
2018-12-15T15:53:27.122Z,100.00
2018-12-15T15:55:54.271Z,100.00
2018-12-15T15:58:21.394Z,100.00
2018-12-15T16:00:48.583Z,100.00
2018-12-15T16:03:15.699Z,100.00
2018-12-15T16:05:42.814Z,100.00
2018-12-15T16:08:10.091Z,100.00
2018-12-15T16:10:37.210Z,100.00
2018-12-15T16:13:04.359Z,100.00
2018-12-15T16:15:31.524Z,100.00
2018-12-15T16:17:58.658Z,100.00
2018-12-15T16:20:25.879Z,100.00
2018-12-15T16:22:53.156Z,100.00
2018-12-15T16:25:20.283Z,100.00
2018-12-15T16:27:47.407Z,100.00
2018-12-15T16:30:14.700Z,100.00
2018-12-15T16:32:41.853Z,100.00
2018-12-15T16:35:09.515Z,100.00
2018-12-15T16:37:36.758Z,100.00
2018-12-15T16:40:05.291Z,100.00
2018-12-15T16:42:32.536Z,100.00
2018-12-15T16:44:59.735Z,100.00
2018-12-15T16:47:27.484Z,100.00
2018-12-15T16:49:54.907Z,100.00
2018-12-15T16:52:22.262Z,100.00
2018-12-15T16:54:49.608Z,100.00
2018-12-15T16:57:16.735Z,100.00
2018-12-15T16:59:43.995Z,100.00
2018-12-15T17:02:11.229Z,100.00
2018-12-15T17:04:38.346Z,100.00
2018-12-15T17:07:05.526Z,100.00
2018-12-15T17:09:32.643Z,100.00
2018-12-15T17:11:59.772Z,100.00
2018-12-15T17:14:26.958Z,100.00
2018-12-15T17:16:54.079Z,100.00
2018-12-15T17:19:21.193Z,100.00
2018-12-15T17:21:48.447Z,100.00
2018-12-15T17:24:15.599Z,100.00
2018-12-15T17:26:42.717Z,100.00
2018-12-15T17:29:09.912Z,100.00
2018-12-15T17:31:37.047Z,100.00
2018-12-15T17:34:04.183Z,100.00
2018-12-15T17:36:31.452Z,100.00
2018-12-15T17:38:58.723Z,100.00
2018-12-15T17:41:25.983Z,100.00
2018-12-15T17:43:53.175Z,100.00
2018-12-15T17:46:20.308Z,100.00
2018-12-15T17:48:47.468Z,100.00
2018-12-15T17:51:14.747Z,100.00
2018-12-15T17:53:42.039Z,100.00
2018-12-15T17:56:09.183Z,100.00
2018-12-15T17:58:36.394Z,100.00
2018-12-15T18:01:03.713Z,100.00
2018-12-15T18:03:30.873Z,100.00
2018-12-15T18:05:58.139Z,100.00
2018-12-15T18:08:25.263Z,100.00
2018-12-15T18:10:52.442Z,100.00
2018-12-15T18:13:19.639Z,100.00
2018-12-15T18:15:46.884Z,100.00
2018-12-15T18:18:14.102Z,100.00
2018-12-15T18:20:41.272Z,100.00
2018-12-15T18:23:08.478Z,100.00
2018-12-15T18:25:35.648Z,100.00
2018-12-15T18:28:03.911Z,100.00
2018-12-15T18:30:31.030Z,100.00
2018-12-15T18:32:58.183Z,100.00
2018-12-15T18:35:25.391Z,100.00
2018-12-15T18:37:52.543Z,100.00
2018-12-15T18:40:19.691Z,100.00
2018-12-15T18:42:46.962Z,100.00
2018-12-15T18:45:14.306Z,100.00
2018-12-15T18:47:41.488Z,100.00
2018-12-15T18:53:09.488Z,100.00
2018-12-15T18:55:36.626Z,100.00
2018-12-15T18:58:05.826Z,100.00
2018-12-15T19:00:33.529Z,100.00
2018-12-15T19:03:00.635Z,100.00
2018-12-15T19:05:27.763Z,100.00
2018-12-15T19:07:55.035Z,100.00
2018-12-15T19:10:22.162Z,100.00
2018-12-15T19:12:49.374Z,100.00
2018-12-15T19:15:16.551Z,100.00
2018-12-15T19:17:43.644Z,100.00
2018-12-15T19:20:10.885Z,100.00
2018-12-15T19:22:38.115Z,100.00
2018-12-15T19:25:05.591Z,100.00
2018-12-15T19:27:32.758Z,100.00
2018-12-15T19:29:59.994Z,100.00
2018-12-15T19:32:27.126Z,100.00
2018-12-15T19:34:54.325Z,100.00
2018-12-15T19:37:21.560Z,100.00
2018-12-15T19:39:48.678Z,100.00
2018-12-15T19:42:15.807Z,100.00
2018-12-15T19:47:25.336Z,100.00
2018-12-15T19:49:52.587Z,100.00
2018-12-15T19:52:19.726Z,100.00
2018-12-15T19:54:46.975Z,100.00
2018-12-15T19:57:14.220Z,100.00
2018-12-15T19:59:41.523Z,100.00
2018-12-15T20:02:08.751Z,100.00
2018-12-15T20:04:35.903Z,100.00
2018-12-15T20:07:03.347Z,100.00
2018-12-15T20:09:30.583Z,100.00
2018-12-15T20:11:57.813Z,100.00
2018-12-15T20:14:24.970Z,100.00
2018-12-15T20:16:52.264Z,100.00
2018-12-15T20:19:19.506Z,100.00
2018-12-15T20:21:46.627Z,100.00
2018-12-15T20:24:13.803Z,100.00
2018-12-15T20:26:40.990Z,100.00
2018-12-15T20:29:08.129Z,100.00
2018-12-15T20:31:35.371Z,100.00
2018-12-15T20:34:03.727Z,100.00
2018-12-15T20:36:31.054Z,100.00
2018-12-15T20:38:59.231Z,100.00
2018-12-15T20:41:26.362Z,100.00
2018-12-15T20:43:54.206Z,100.00
2018-12-15T20:46:21.915Z,100.00
2018-12-15T20:48:50.719Z,100.00
2018-12-15T20:51:18.121Z,100.00
2018-12-15T20:53:45.406Z,100.00
2018-12-15T20:56:12.592Z,100.00
2018-12-15T20:58:39.945Z,100.00
2018-12-15T21:01:07.803Z,100.00
2018-12-15T21:03:35.681Z,100.00
2018-12-15T21:06:02.803Z,100.00
2018-12-15T21:08:30.289Z,100.00
2018-12-15T21:10:57.415Z,100.00
2018-12-15T21:13:25.003Z,100.00
2018-12-15T21:15:55.416Z,100.00
2018-12-15T21:18:22.955Z,100.00
2018-12-15T21:20:51.246Z,100.00
2018-12-15T21:23:18.448Z,100.00
2018-12-15T21:25:45.827Z,100.00
2018-12-15T21:28:13.106Z,100.00
2018-12-15T21:30:40.325Z,100.00
2018-12-15T21:33:07.542Z,100.00
2018-12-15T21:35:35.771Z,100.00
2018-12-15T21:38:02.956Z,100.00
2018-12-15T21:40:30.088Z,100.00
2018-12-15T21:42:57.203Z,100.00
2018-12-15T21:45:24.392Z,100.00
2018-12-15T21:47:57.386Z,100.00
2018-12-15T21:50:20.779Z,100.00
2018-12-15T21:52:47.956Z,100.00
2018-12-15T21:55:15.088Z,100.00
2018-12-15T21:57:42.275Z,100.00
2018-12-15T22:00:09.669Z,100.00
2018-12-15T22:02:36.881Z,100.00
2018-12-15T22:05:05.003Z,100.00
2018-12-15T22:07:34.156Z,100.00
2018-12-15T22:10:01.306Z,100.00
2018-12-15T22:12:28.530Z,100.00
2018-12-15T22:14:55.720Z,100.00
2018-12-15T22:17:22.854Z,100.00
2018-12-15T22:19:53.703Z,100.00
2018-12-15T22:22:20.904Z,100.00
2018-12-15T22:24:48.279Z,100.00
2018-12-15T22:27:15.408Z,100.00
2018-12-15T22:29:42.691Z,100.00
2018-12-15T22:32:09.832Z,100.00
2018-12-15T22:34:36.972Z,100.00
2018-12-15T22:37:04.170Z,100.00
2018-12-15T22:39:31.298Z,100.00
2018-12-15T22:41:58.438Z,100.00
2018-12-15T22:44:25.620Z,100.00
2018-12-15T22:46:52.742Z,100.00
2018-12-15T22:49:19.851Z,100.00
2018-12-15T22:51:47.084Z,100.00
2018-12-15T22:54:14.203Z,100.00
2018-12-15T22:56:41.335Z,100.00
2018-12-15T22:59:08.542Z,100.00
2018-12-15T23:01:41.434Z,100.00
2018-12-15T23:04:08.719Z,100.00
2018-12-15T23:06:35.885Z,100.00
2018-12-15T23:09:05.075Z,100.00
2018-12-15T23:11:32.404Z,100.00
2018-12-15T23:13:59.531Z,100.00
2018-12-15T23:16:26.671Z,100.00
2018-12-15T23:18:53.880Z,100.00
2018-12-15T23:21:21.048Z,100.00
2018-12-15T23:23:48.227Z,100.00
2018-12-15T23:26:15.382Z,100.00
2018-12-15T23:28:42.498Z,100.00
2018-12-15T23:31:09.803Z,100.00
2018-12-15T23:33:36.971Z,100.00
2018-12-15T23:36:04.183Z,100.00
2018-12-15T23:38:31.292Z,100.00
2018-12-15T23:40:58.435Z,100.00
2018-12-15T23:43:25.719Z,100.00
2018-12-15T23:45:52.842Z,100.00
2018-12-15T23:48:19.983Z,100.00
2018-12-15T23:50:47.083Z,100.00
2018-12-15T23:53:14.195Z,100.00
2018-12-15T23:55:41.458Z,100.00
2018-12-15T23:58:08.575Z,100.00
